Terminal Aerodrome Forecast
Issued by NWS

Current Version | Previous Version | Text Only | Print | Product List | Glossary Off
Versions: 1 2 3 4 5 6 7 8 9 10 11 12 13 14 15 16 17 18 19 20 21 22 23 24 25 26

000
FTUS41 KILN 301139
TAFLCK
TAF
KLCK 301139Z 3012/0112 09008KT P6SM BKN009 OVC080
     FM301400 10009KT P6SM OVC050
     FM301800 11010G18KT 4SM -SHRA BR OVC025
     FM302200 15014G24KT 2SM -SHRA BR OVC012
     FM010400 19012G22KT 5SM BR VCSH OVC012=

USA.gov is the U.S. government's official web portal to all federal, state and local government web resources and services.